KHND

Henderson Executive Airport

Las Vegas, Nevada, USA
METAR KHND 221256Z 12004KT 10SM FEW060 16/11 A2997 RMK AO2 LTG DSNT SE SLP135 T01560106 $
Observed Flight Rules
Oct-22 @ 12:56 UTC (2 hours ago) Visual Flight Rules
Wind Visibility Clouds
120° at 4 knots 10 miles
  • Few at 6,000' AGL
Temperatures Readings
Current 16°C / 61°F
Dewpoint 11°C / 52°F
Humidity 72%
Altimeter 29.97" Hg
Pressure 1013.5 hPa
Elevation 749
METAR KHND 221256Z 12004KT 10SM FEW060 16/11 A2997 RMK AO2 LTG DSNT SE SLP135 T01560106 $
Observed Flight Rules
Oct-22 @ 12:56 UTC
(2 hours ago)
VFR
Wind Visibility
120° at 4 knots 10 miles
Clouds
  • Few at 6,000' AGL
Temperature Dewpoint
16°C / 61°F 11°C / 52°F
Humidity Altimeter Pressure
72% 29.97" Hg 1013.5 hPa